createdAt,value
2019-03-25T00:02:29.602Z,65.19
2019-03-25T00:05:00.045Z,65.73
2019-03-25T00:07:31.039Z,65.70
2019-03-25T00:10:02.173Z,65.72
2019-03-25T00:12:32.908Z,65.88
2019-03-25T00:15:05.733Z,65.99
2019-03-25T00:17:39.431Z,66.27
2019-03-25T00:20:10.373Z,66.33
2019-03-25T00:22:42.772Z,66.30
2019-03-25T00:25:13.545Z,66.50
2019-03-25T00:27:44.397Z,66.91
2019-03-25T00:30:16.016Z,66.74
2019-03-25T00:32:46.511Z,66.94
2019-03-25T00:35:17.311Z,67.15
2019-03-25T00:37:48.153Z,67.08
2019-03-25T00:40:19.060Z,67.12
2019-03-25T00:42:50.025Z,67.13
2019-03-25T00:45:20.999Z,66.90
2019-03-25T00:47:51.797Z,66.88
2019-03-25T00:50:22.255Z,66.80
2019-03-25T00:52:53.070Z,66.94
2019-03-25T00:55:23.877Z,66.57
2019-03-25T00:57:54.822Z,65.95
2019-03-25T01:00:25.666Z,66.44
2019-03-25T01:02:56.515Z,66.95
2019-03-25T01:05:27.330Z,67.11
2019-03-25T01:07:58.061Z,66.94
2019-03-25T01:10:28.862Z,66.92
2019-03-25T01:12:59.646Z,66.97
2019-03-25T01:15:30.384Z,66.67
2019-03-25T01:18:01.108Z,66.84
2019-03-25T01:20:32.119Z,66.72
2019-03-25T01:23:02.895Z,66.97
2019-03-25T01:25:33.329Z,66.79
2019-03-25T01:28:04.154Z,66.48
2019-03-25T01:30:34.994Z,66.75
2019-03-25T01:33:05.732Z,66.70
2019-03-25T01:35:36.550Z,66.97
2019-03-25T01:38:07.012Z,67.04
2019-03-25T01:40:37.709Z,67.20
2019-03-25T01:43:08.554Z,67.38
2019-03-25T01:45:39.436Z,67.59
2019-03-25T01:48:09.954Z,67.57
2019-03-25T01:50:40.760Z,67.61
2019-03-25T01:53:11.178Z,67.53
2019-03-25T01:55:43.050Z,67.43
2019-03-25T01:58:13.894Z,67.54
2019-03-25T02:00:44.611Z,67.99
2019-03-25T02:03:15.486Z,68.10
2019-03-25T02:05:45.939Z,68.17
2019-03-25T02:08:16.607Z,68.40
2019-03-25T02:10:47.378Z,68.30
2019-03-25T02:13:18.178Z,68.22
2019-03-25T02:15:49.014Z,68.85
2019-03-25T02:18:19.782Z,68.90
2019-03-25T02:20:53.900Z,69.03
2019-03-25T02:23:24.699Z,69.46
2019-03-25T02:25:55.551Z,69.26
2019-03-25T02:28:26.280Z,69.55
2019-03-25T02:30:56.999Z,69.52
2019-03-25T02:33:27.748Z,69.47
2019-03-25T02:35:58.584Z,69.63
2019-03-25T02:38:29.424Z,70.14
2019-03-25T02:41:00.174Z,69.92
2019-03-25T02:43:30.897Z,70.19
2019-03-25T02:46:01.729Z,69.95
2019-03-25T02:48:32.565Z,70.19
2019-03-25T02:51:03.501Z,70.15
2019-03-25T02:53:34.137Z,70.01
2019-03-25T02:56:04.965Z,70.05
2019-03-25T02:58:35.809Z,69.70
2019-03-25T03:01:06.383Z,69.59
2019-03-25T03:03:37.103Z,69.69
2019-03-25T03:06:07.905Z,69.52
2019-03-25T03:08:38.640Z,69.67
2019-03-25T03:11:09.371Z,69.28
2019-03-25T03:13:40.210Z,68.96
2019-03-25T03:16:10.944Z,69.31
2019-03-25T03:18:41.691Z,68.56
2019-03-25T03:21:12.419Z,68.57
2019-03-25T03:23:43.262Z,68.80
2019-03-25T03:26:14.192Z,68.52
2019-03-25T03:28:45.039Z,68.76
2019-03-25T03:31:15.871Z,68.69
2019-03-25T03:33:46.721Z,68.72
2019-03-25T03:36:17.537Z,68.52
2019-03-25T03:38:48.270Z,68.76
2019-03-25T03:41:19.115Z,68.27
2019-03-25T03:43:49.541Z,68.50
2019-03-25T03:46:20.265Z,68.32
2019-03-25T03:48:50.992Z,68.30
2019-03-25T03:51:21.851Z,68.16
2019-03-25T03:53:52.302Z,68.29
2019-03-25T03:56:23.428Z,68.32
2019-03-25T03:58:54.562Z,68.54
2019-03-25T04:01:25.320Z,68.62
2019-03-25T04:03:56.137Z,68.63
2019-03-25T04:06:26.847Z,68.71
2019-03-25T04:08:57.621Z,69.08
2019-03-25T04:11:28.433Z,69.30
2019-03-25T04:13:59.086Z,69.43
2019-03-25T04:16:29.923Z,69.59
2019-03-25T04:19:00.738Z,69.56
2019-03-25T04:21:32.331Z,69.84
2019-03-25T04:24:03.118Z,70.09
2019-03-25T04:26:33.892Z,69.81
2019-03-25T04:29:05.962Z,69.99
2019-03-25T04:31:36.663Z,69.95
2019-03-25T04:34:09.053Z,69.75
2019-03-25T04:36:39.769Z,70.28
2019-03-25T04:39:10.590Z,69.70
2019-03-25T04:41:41.379Z,69.59
2019-03-25T04:44:12.330Z,69.69
2019-03-25T04:46:43.114Z,69.71
2019-03-25T04:49:13.849Z,69.36
2019-03-25T04:51:45.036Z,69.40
2019-03-25T04:54:16.035Z,69.39
2019-03-25T04:56:46.887Z,69.05
2019-03-25T04:59:17.416Z,69.06
2019-03-25T05:01:47.913Z,68.85
2019-03-25T05:04:18.855Z,68.97
2019-03-25T05:06:49.697Z,68.44
2019-03-25T05:09:20.941Z,68.43
2019-03-25T05:11:51.708Z,68.42
2019-03-25T05:14:22.419Z,68.40
2019-03-25T05:16:54.388Z,68.61
2019-03-25T05:19:25.369Z,68.87
2019-03-25T05:21:55.869Z,68.80
2019-03-25T05:24:26.670Z,68.07
2019-03-25T05:27:00.071Z,68.46
2019-03-25T05:29:30.830Z,68.68
2019-03-25T05:32:01.649Z,68.64
2019-03-25T05:34:32.489Z,68.23
2019-03-25T05:37:02.935Z,69.11
2019-03-25T05:39:33.740Z,70.25
2019-03-25T05:42:04.503Z,71.57
2019-03-25T05:44:35.346Z,72.70
2019-03-25T05:47:06.177Z,74.18
2019-03-25T05:49:37.087Z,75.17
2019-03-25T05:52:07.781Z,77.21
2019-03-25T05:54:38.641Z,79.40
2019-03-25T05:57:09.415Z,81.12
2019-03-25T05:59:39.775Z,81.67
2019-03-25T06:02:10.455Z,82.27
2019-03-25T06:04:41.319Z,82.22
2019-03-25T06:07:12.151Z,82.94
2019-03-25T06:09:42.869Z,83.25
2019-03-25T06:12:13.729Z,83.36
2019-03-25T06:14:44.541Z,83.84
2019-03-25T06:17:15.384Z,84.07
2019-03-25T06:19:46.219Z,84.19
2019-03-25T06:22:17.075Z,84.14
2019-03-25T06:24:48.540Z,84.53
2019-03-25T06:27:19.479Z,84.71
2019-03-25T06:29:50.265Z,85.60
2019-03-25T06:32:21.009Z,85.60
2019-03-25T06:34:51.799Z,85.56
2019-03-25T06:37:22.585Z,86.77
2019-03-25T06:39:53.439Z,86.71
2019-03-25T06:42:24.270Z,87.33
2019-03-25T06:44:54.747Z,87.73
2019-03-25T06:47:25.407Z,87.49
2019-03-25T06:49:55.914Z,87.48
2019-03-25T06:52:26.683Z,87.50
2019-03-25T06:54:57.108Z,87.45
2019-03-25T06:57:27.548Z,87.29
2019-03-25T06:59:58.424Z,87.87
2019-03-25T07:02:29.236Z,88.05
2019-03-25T07:05:00.310Z,87.66
2019-03-25T07:07:31.215Z,87.93
2019-03-25T07:10:02.066Z,88.30
2019-03-25T07:12:33.015Z,88.24
2019-03-25T07:15:04.330Z,87.99
2019-03-25T07:17:34.796Z,88.17
2019-03-25T07:20:09.811Z,88.61
2019-03-25T07:22:40.535Z,88.59
2019-03-25T07:25:11.353Z,88.00
2019-03-25T07:27:42.205Z,88.29
2019-03-25T07:30:12.996Z,88.34
2019-03-25T07:32:45.387Z,88.71
2019-03-25T07:35:16.373Z,88.10
2019-03-25T07:37:47.071Z,88.04
2019-03-25T07:40:17.881Z,87.93
2019-03-25T07:42:48.651Z,88.05
2019-03-25T07:45:19.522Z,87.87
2019-03-25T07:47:50.326Z,87.73
2019-03-25T07:50:21.097Z,87.96
2019-03-25T07:52:52.117Z,88.07
2019-03-25T07:55:25.404Z,87.54
2019-03-25T07:57:56.269Z,87.56
2019-03-25T08:00:27.224Z,87.48
2019-03-25T08:02:58.021Z,87.30
2019-03-25T08:05:28.850Z,87.19
2019-03-25T08:07:59.586Z,86.29
2019-03-25T08:10:33.352Z,86.69
2019-03-25T08:13:04.647Z,87.10
2019-03-25T08:15:35.709Z,86.98
2019-03-25T08:18:07.143Z,86.75
2019-03-25T08:20:38.076Z,86.62
2019-03-25T08:23:08.825Z,85.43
2019-03-25T08:25:39.630Z,86.27
2019-03-25T08:28:10.550Z,86.44
2019-03-25T08:30:41.303Z,86.45
2019-03-25T08:33:11.712Z,85.77
2019-03-25T08:35:42.272Z,85.69
2019-03-25T08:38:13.000Z,85.82
2019-03-25T08:40:43.546Z,85.65
2019-03-25T08:43:14.354Z,84.99
2019-03-25T08:45:45.206Z,84.48
2019-03-25T08:48:15.984Z,84.97
2019-03-25T08:50:46.787Z,83.72
2019-03-25T08:53:17.613Z,84.91
2019-03-25T08:55:48.080Z,84.11
2019-03-25T08:58:18.865Z,84.67
2019-03-25T09:00:49.924Z,83.72
2019-03-25T09:03:20.884Z,84.46
2019-03-25T09:05:51.680Z,83.25
2019-03-25T09:08:22.431Z,84.25
2019-03-25T09:10:53.249Z,83.18
2019-03-25T09:13:23.637Z,83.61
2019-03-25T09:15:54.536Z,83.80
2019-03-25T09:18:25.278Z,83.61
2019-03-25T09:20:56.068Z,82.39
2019-03-25T09:23:26.742Z,82.31
2019-03-25T09:25:57.662Z,82.40
2019-03-25T09:28:28.508Z,82.89
2019-03-25T09:31:05.086Z,81.70
2019-03-25T09:33:35.828Z,82.39
2019-03-25T09:36:06.459Z,81.80
2019-03-25T09:38:37.496Z,80.72
2019-03-25T09:41:08.389Z,80.50
2019-03-25T09:43:39.266Z,78.78
2019-03-25T09:46:10.099Z,79.18
2019-03-25T09:48:40.467Z,78.15
2019-03-25T09:51:11.258Z,77.93
2019-03-25T09:53:46.643Z,77.47
2019-03-25T09:56:17.461Z,76.02
2019-03-25T09:58:47.969Z,77.63
2019-03-25T10:01:18.919Z,77.79
2019-03-25T10:03:51.519Z,76.92
2019-03-25T10:06:22.328Z,77.03
2019-03-25T10:08:52.747Z,79.40
2019-03-25T10:11:23.553Z,78.94
2019-03-25T10:13:54.302Z,77.94
2019-03-25T10:16:25.017Z,77.81
2019-03-25T10:18:55.798Z,78.10
2019-03-25T10:21:26.597Z,77.52
2019-03-25T10:23:57.457Z,76.00
2019-03-25T10:26:28.283Z,77.71
2019-03-25T10:29:01.799Z,79.23
2019-03-25T10:31:32.332Z,79.21
2019-03-25T10:34:03.055Z,78.45
2019-03-25T10:36:33.812Z,78.50
2019-03-25T10:39:06.979Z,79.63
2019-03-25T10:41:38.561Z,77.96
2019-03-25T10:44:09.575Z,78.31
2019-03-25T10:46:40.305Z,76.65
2019-03-25T10:49:10.698Z,76.22
2019-03-25T10:51:41.517Z,75.84
2019-03-25T10:54:12.432Z,75.77
2019-03-25T10:56:49.070Z,73.94
2019-03-25T10:59:15.803Z,73.25
2019-03-25T11:01:46.651Z,74.32
2019-03-25T11:04:17.404Z,73.72
2019-03-25T11:06:48.514Z,73.03
2019-03-25T11:09:19.257Z,72.38
2019-03-25T11:11:50.109Z,72.71
2019-03-25T11:14:20.896Z,73.13
2019-03-25T11:16:51.432Z,73.60
2019-03-25T11:19:22.233Z,72.82
2019-03-25T11:21:53.090Z,72.96
2019-03-25T11:24:23.881Z,72.54
2019-03-25T11:26:54.740Z,72.61
2019-03-25T11:29:25.554Z,74.29
2019-03-25T11:31:56.288Z,78.76
2019-03-25T11:34:26.660Z,80.41
2019-03-25T11:36:57.450Z,80.52
2019-03-25T11:39:27.835Z,80.29
2019-03-25T11:41:58.636Z,81.76
2019-03-25T11:44:29.153Z,82.43
2019-03-25T11:46:59.960Z,84.39
2019-03-25T11:49:30.728Z,82.96
2019-03-25T11:52:01.540Z,80.51
2019-03-25T11:54:32.017Z,77.60
2019-03-25T11:57:02.802Z,79.62
2019-03-25T11:59:33.537Z,77.00
2019-03-25T12:02:04.300Z,76.48
2019-03-25T12:04:35.249Z,77.36
2019-03-25T12:07:06.052Z,73.90
2019-03-25T12:09:36.774Z,73.49
2019-03-25T12:12:07.622Z,73.18
2019-03-25T12:14:38.380Z,73.25
2019-03-25T12:17:09.219Z,73.61
2019-03-25T12:19:40.058Z,71.97
2019-03-25T12:22:12.795Z,70.03
2019-03-25T12:24:43.335Z,70.96
2019-03-25T12:27:13.835Z,72.27
2019-03-25T12:29:44.646Z,71.96
2019-03-25T12:32:15.556Z,69.17
2019-03-25T12:34:45.963Z,67.69
2019-03-25T12:37:16.705Z,66.40
2019-03-25T12:39:47.428Z,66.55
2019-03-25T12:42:18.194Z,67.21
2019-03-25T12:44:49.012Z,71.15
2019-03-25T12:47:19.397Z,67.88
2019-03-25T12:49:50.060Z,69.07
2019-03-25T12:52:20.794Z,69.29
2019-03-25T12:54:51.572Z,67.98
2019-03-25T12:57:22.405Z,66.03
2019-03-25T12:59:53.202Z,64.16
2019-03-25T13:02:24.185Z,64.59
2019-03-25T13:04:55.223Z,66.41
2019-03-25T13:07:26.141Z,64.87
2019-03-25T13:09:56.854Z,66.26
2019-03-25T13:12:27.638Z,66.23
2019-03-25T13:14:58.153Z,65.34
2019-03-25T13:17:28.966Z,66.06
2019-03-25T13:19:59.710Z,64.39
2019-03-25T13:22:30.201Z,65.80
2019-03-25T13:25:00.959Z,63.91
2019-03-25T13:27:31.386Z,63.65
2019-03-25T13:30:01.749Z,62.95
2019-03-25T13:32:32.551Z,59.55
2019-03-25T13:35:03.393Z,59.68
2019-03-25T13:37:34.230Z,59.62
2019-03-25T13:40:07.105Z,63.08
2019-03-25T13:42:37.879Z,66.46
2019-03-25T13:45:08.802Z,68.88
2019-03-25T13:47:39.536Z,70.25
2019-03-25T13:50:10.346Z,70.78
2019-03-25T13:52:41.116Z,70.89
2019-03-25T13:55:12.134Z,71.26
2019-03-25T13:57:42.980Z,72.13
2019-03-25T14:00:14.446Z,75.62
2019-03-25T14:02:45.312Z,76.92
2019-03-25T14:05:16.126Z,78.27
2019-03-25T14:07:46.631Z,80.15
2019-03-25T14:10:17.846Z,81.54
2019-03-25T14:12:51.883Z,82.75
2019-03-25T14:15:22.326Z,83.53
2019-03-25T14:17:53.068Z,82.65
2019-03-25T14:20:24.031Z,82.78
2019-03-25T14:22:54.836Z,81.12
2019-03-25T14:25:25.272Z,82.20
2019-03-25T14:27:55.871Z,81.36
2019-03-25T14:30:26.835Z,81.91
2019-03-25T14:32:59.120Z,81.06
2019-03-25T14:35:30.034Z,81.06
2019-03-25T14:38:00.600Z,80.87
2019-03-25T14:40:31.601Z,80.53
2019-03-25T14:43:03.878Z,79.59
2019-03-25T14:45:34.727Z,80.35
2019-03-25T14:48:05.648Z,80.02
2019-03-25T14:50:39.466Z,79.88
2019-03-25T14:53:10.293Z,79.80
2019-03-25T14:55:41.620Z,78.63
2019-03-25T14:58:12.468Z,79.46
2019-03-25T15:00:43.353Z,78.47
2019-03-25T15:03:14.156Z,78.53
2019-03-25T15:05:45.026Z,77.54
2019-03-25T15:08:15.600Z,76.80
2019-03-25T15:10:53.502Z,76.46
2019-03-25T15:13:18.963Z,75.75
2019-03-25T15:15:51.290Z,76.67
2019-03-25T15:18:21.763Z,75.28
2019-03-25T15:20:53.013Z,74.61
2019-03-25T15:23:23.808Z,71.75
2019-03-25T15:25:54.550Z,69.20
2019-03-25T15:28:24.969Z,68.70
2019-03-25T15:30:55.338Z,67.91
2019-03-25T15:33:25.811Z,68.78
2019-03-25T15:35:56.666Z,68.98
2019-03-25T15:38:27.481Z,67.57
2019-03-25T15:40:58.276Z,68.44
2019-03-25T15:43:31.546Z,68.20
2019-03-25T15:46:02.469Z,68.95
2019-03-25T15:48:33.301Z,69.08
2019-03-25T15:51:06.597Z,69.19
2019-03-25T15:53:37.021Z,68.97
2019-03-25T15:56:07.771Z,68.83
2019-03-25T15:58:38.612Z,68.59
2019-03-25T16:01:12.467Z,69.23
2019-03-25T16:03:43.246Z,69.52
2019-03-25T16:06:15.572Z,69.49
2019-03-25T16:08:46.344Z,68.74
2019-03-25T16:11:16.713Z,68.88
2019-03-25T16:13:47.277Z,69.45
2019-03-25T16:16:18.077Z,69.59
2019-03-25T16:18:48.513Z,70.00
2019-03-25T16:21:19.410Z,69.54
2019-03-25T16:23:50.235Z,70.03
2019-03-25T16:26:21.226Z,70.02
2019-03-25T16:28:52.111Z,70.07
2019-03-25T16:31:22.961Z,70.70
2019-03-25T16:33:53.789Z,70.55
2019-03-25T16:36:24.563Z,70.50
2019-03-25T16:38:55.527Z,70.08
2019-03-25T16:41:26.410Z,70.64
2019-03-25T16:43:56.931Z,70.75
2019-03-25T16:46:27.665Z,71.06
2019-03-25T16:48:58.652Z,71.54
2019-03-25T16:51:29.445Z,71.97
2019-03-25T16:54:01.727Z,72.53
2019-03-25T16:56:32.624Z,71.01
2019-03-25T16:59:04.656Z,70.51
2019-03-25T17:01:35.447Z,71.11
2019-03-25T17:04:06.385Z,71.68
2019-03-25T17:06:37.264Z,71.10
2019-03-25T17:09:08.498Z,70.88
2019-03-25T17:11:39.411Z,71.23
2019-03-25T17:14:10.253Z,71.38
2019-03-25T17:16:41.025Z,70.59
2019-03-25T17:19:11.942Z,69.69
2019-03-25T17:21:46.237Z,69.46
2019-03-25T17:24:17.346Z,69.84
2019-03-25T17:26:48.148Z,69.65
2019-03-25T17:29:19.069Z,69.60
2019-03-25T17:31:49.530Z,69.68
2019-03-25T17:34:20.355Z,69.55
2019-03-25T17:36:50.878Z,69.97
2019-03-25T17:39:21.709Z,69.76
2019-03-25T17:41:52.629Z,69.22
2019-03-25T17:44:23.604Z,69.37
2019-03-25T17:46:54.400Z,69.55
2019-03-25T17:49:25.231Z,70.13
2019-03-25T17:51:56.184Z,69.47
2019-03-25T17:54:27.073Z,68.45
2019-03-25T17:56:57.955Z,69.75
2019-03-25T17:59:28.742Z,69.33
2019-03-25T18:01:59.644Z,69.31
2019-03-25T18:04:30.383Z,68.95
2019-03-25T18:07:02.385Z,69.02
2019-03-25T18:09:33.384Z,69.21
2019-03-25T18:12:06.444Z,69.23
2019-03-25T18:14:37.228Z,69.32
2019-03-25T18:17:08.042Z,69.73
2019-03-25T18:19:38.762Z,68.53
2019-03-25T18:22:09.515Z,69.12
2019-03-25T18:24:40.316Z,68.74
2019-03-25T18:27:10.730Z,68.28
2019-03-25T18:29:41.506Z,68.51
2019-03-25T18:32:12.453Z,68.26
2019-03-25T18:34:43.699Z,68.00
2019-03-25T18:37:14.660Z,67.54
2019-03-25T18:39:45.708Z,67.62
2019-03-25T18:42:16.416Z,67.33
2019-03-25T18:44:47.691Z,66.99
2019-03-25T18:47:18.508Z,67.57
2019-03-25T18:49:49.515Z,66.90
2019-03-25T18:52:20.010Z,66.88
2019-03-25T18:54:50.931Z,66.70
2019-03-25T18:57:21.914Z,66.53
2019-03-25T18:59:52.790Z,67.19
2019-03-25T19:02:23.716Z,66.22
2019-03-25T19:04:54.786Z,66.72
2019-03-25T19:07:25.782Z,66.86
2019-03-25T19:09:56.225Z,66.71
2019-03-25T19:12:27.195Z,67.03
2019-03-25T19:14:57.620Z,67.53
2019-03-25T19:17:28.524Z,67.03
2019-03-25T19:19:59.606Z,67.44
2019-03-25T19:22:30.383Z,68.03
2019-03-25T19:25:01.242Z,67.55
2019-03-25T19:27:31.721Z,67.71
2019-03-25T19:30:04.278Z,68.12
2019-03-25T19:32:35.189Z,67.95
2019-03-25T19:35:09.606Z,68.18
2019-03-25T19:37:40.373Z,68.50
2019-03-25T19:40:11.073Z,68.94
2019-03-25T19:42:41.909Z,68.80
2019-03-25T19:45:13.166Z,68.87
2019-03-25T19:47:45.495Z,69.35
2019-03-25T19:50:18.839Z,69.65
2019-03-25T19:52:53.772Z,69.42
2019-03-25T19:55:24.608Z,69.93
2019-03-25T19:57:55.235Z,70.01
2019-03-25T20:00:40.324Z,69.96
2019-03-25T20:03:11.259Z,70.59
2019-03-25T20:05:42.174Z,70.80
2019-03-25T20:08:13.585Z,70.97
2019-03-25T20:10:47.897Z,70.72
2019-03-25T20:13:18.799Z,70.82
2019-03-25T20:22:11.847Z,71.59
2019-03-25T20:24:57.266Z,71.65
2019-03-25T20:27:25.336Z,72.36
2019-03-25T20:29:56.149Z,71.84
2019-03-25T20:32:31.855Z,71.72
2019-03-25T20:34:59.354Z,72.47
2019-03-25T20:37:30.234Z,72.64
2019-03-25T20:40:02.732Z,72.70
2019-03-25T20:42:33.227Z,73.02
2019-03-25T20:45:05.649Z,72.72
2019-03-25T20:47:36.840Z,73.27
2019-03-25T20:50:09.818Z,73.67
2019-03-25T20:52:42.255Z,73.45
2019-03-25T20:55:13.241Z,73.38
2019-03-25T20:57:44.699Z,73.53
2019-03-25T21:00:16.328Z,73.93
2019-03-25T21:02:46.858Z,73.99
2019-03-25T21:05:19.452Z,73.94
2019-03-25T21:07:50.363Z,74.03
2019-03-25T21:10:21.169Z,74.05
2019-03-25T21:12:52.155Z,74.27
2019-03-25T21:15:23.048Z,74.15
2019-03-25T21:17:53.944Z,74.64
2019-03-25T21:20:25.003Z,75.00
2019-03-25T21:22:55.916Z,75.25
2019-03-25T21:25:26.646Z,76.03
2019-03-25T21:27:58.713Z,75.57
2019-03-25T21:30:29.196Z,75.36
2019-03-25T21:33:01.374Z,76.57
2019-03-25T21:35:32.982Z,76.17
2019-03-25T21:38:06.095Z,76.30
2019-03-25T21:40:36.914Z,76.32
2019-03-25T21:43:07.844Z,76.20
2019-03-25T21:45:44.667Z,76.38
2019-03-25T21:48:15.589Z,76.71
2019-03-25T21:50:46.440Z,76.59
2019-03-25T21:53:17.008Z,76.75
2019-03-25T21:55:47.910Z,77.44
2019-03-25T21:58:18.897Z,77.14
2019-03-25T22:00:49.776Z,77.52
2019-03-25T22:03:20.676Z,77.60
2019-03-25T22:05:51.395Z,77.65
2019-03-25T22:08:23.681Z,77.34
2019-03-25T22:10:54.543Z,77.77
2019-03-25T22:13:25.379Z,77.52
2019-03-25T22:15:56.194Z,77.99
2019-03-25T22:18:26.909Z,77.86
2019-03-25T22:20:57.646Z,77.75
2019-03-25T22:23:31.051Z,78.26
2019-03-25T22:26:01.451Z,78.42
2019-03-25T22:28:32.316Z,78.65
2019-03-25T22:31:03.196Z,78.62
2019-03-25T22:33:33.990Z,78.77
2019-03-25T22:36:07.170Z,78.87
2019-03-25T22:38:37.909Z,78.53
2019-03-25T22:41:08.643Z,78.63
2019-03-25T22:43:39.381Z,79.26
2019-03-25T22:46:10.133Z,78.98
2019-03-25T22:48:40.987Z,79.48
2019-03-25T22:51:12.368Z,79.28
2019-03-25T22:53:43.145Z,79.62
2019-03-25T22:56:14.269Z,79.68
2019-03-25T22:58:46.304Z,79.59
2019-03-25T23:01:17.175Z,79.85
2019-03-25T23:03:50.367Z,80.13
2019-03-25T23:06:21.104Z,80.08
2019-03-25T23:24:09.248Z,81.12
2019-03-25T23:26:40.081Z,81.25
2019-03-25T23:29:10.797Z,81.37
2019-03-25T23:31:41.655Z,81.18
2019-03-25T23:34:12.491Z,81.57
2019-03-25T23:36:42.925Z,81.20
2019-03-25T23:39:13.649Z,81.62
2019-03-25T23:41:44.434Z,80.84
2019-03-25T23:44:15.224Z,80.97
2019-03-25T23:46:45.967Z,81.16
2019-03-25T23:49:16.692Z,81.01
2019-03-25T23:51:47.120Z,81.23
2019-03-25T23:54:17.856Z,81.36
2019-03-25T23:56:48.599Z,81.43
2019-03-25T23:59:19.421Z,80.93
